Time;durP1;ratioP1;P1;durP2;ratioP2;P2;SDS_P1;SDS_P2;PMS_P1;PMS_P2;Temp;Humidity;BMP_temperature;BMP_pressure;BME280_temperature;BME280_humidity;BME280_pressure;Samples;Min_cycle;Max_cycle;Signal;HPM_P1;HPM_P2
2022/09/09 00:02:05;;;;;;;3.20;1.08;;;;;;;;;;5084659;28;20200;-71
2022/09/09 00:04:32;;;;;;;2.78;1.10;;;;;;;;;;5084465;28;20204;-71
2022/09/09 00:07:04;;;;;;;3.45;1.20;;;;;;;;;;5084887;28;20365;-71
2022/09/09 00:09:31;;;;;;;3.47;1.13;;;;;;;;;;5084404;28;20204;-71
2022/09/09 00:12:03;;;;;;;2.17;1.20;;;;;;;;;;5084315;28;20196;-71
2022/09/09 00:14:34;;;;;;;2.92;0.98;;;;;;;;;;5084176;28;20211;-71
2022/09/09 00:17:02;;;;;;;1.50;0.90;;;;;;;;;;5084400;28;20210;-71
2022/09/09 00:19:31;;;;;;;1.25;0.80;;;;;;;;;;5084241;28;20197;-71
2022/09/09 00:22:03;;;;;;;5.88;1.08;;;;;;;;;;5084264;28;20201;-71
2022/09/09 00:24:35;;;;;;;4.22;1.17;;;;;;;;;;5084282;28;20268;-72
2022/09/09 00:27:05;;;;;;;3.60;1.35;;;;;;;;;;5083957;28;20204;-71
2022/09/09 00:29:35;;;;;;;2.70;1.10;;;;;;;;;;5084157;28;20196;-72
2022/09/09 00:32:06;;;;;;;2.03;1.10;;;;;;;;;;5083931;28;20234;-70
2022/09/09 00:34:33;;;;;;;3.28;1.20;;;;;;;;;;5084185;28;20193;-69
2022/09/09 00:37:00;;;;;;;4.72;1.20;;;;;;;;;;5084104;28;20210;-69
2022/09/09 00:39:31;;;;;;;2.42;1.38;;;;;;;;;;5083169;28;20211;-69
2022/09/09 00:42:08;;;;;;;2.17;1.40;;;;;;;;;;5083417;28;20204;-69
2022/09/09 00:44:37;;;;;;;2.92;1.50;;;;;;;;;;5083544;28;20223;-69
2022/09/09 00:47:19;;;;;;;3.63;1.38;;;;;;;;;;5083890;28;20203;-69
2022/09/09 00:49:53;;;;;;;3.17;1.40;;;;;;;;;;5083660;28;20241;-69
2022/09/09 00:52:24;;;;;;;4.70;1.63;;;;;;;;;;5083820;28;20184;-70
2022/09/09 00:54:56;;;;;;;6.15;1.73;;;;;;;;;;5083571;28;20492;-70
2022/09/09 00:57:28;;;;;;;3.40;1.20;;;;;;;;;;5083419;28;20516;-70
2022/09/09 00:59:58;;;;;;;4.40;1.50;;;;;;;;;;5083542;28;20224;-70
2022/09/09 01:02:39;;;;;;;2.47;1.45;;;;;;;;;;5083168;28;20196;-70
2022/09/09 01:05:08;;;;;;;1.45;1.20;;;;;;;;;;5083030;28;20224;-70
2022/09/09 01:07:34;;;;;;;7.05;1.40;;;;;;;;;;5083504;28;20299;-70
2022/09/09 01:10:01;;;;;;;6.40;1.45;;;;;;;;;;5083272;28;20204;-70
2022/09/09 01:12:34;;;;;;;5.00;1.27;;;;;;;;;;5083027;28;20206;-70
2022/09/09 01:15:04;;;;;;;2.38;1.00;;;;;;;;;;5083181;28;20264;-70
2022/09/09 01:17:32;;;;;;;3.63;1.30;;;;;;;;;;5083320;28;20212;-70
2022/09/09 01:20:03;;;;;;;3.75;1.42;;;;;;;;;;5083354;28;20326;-70
2022/09/09 01:22:34;;;;;;;3.67;1.50;;;;;;;;;;5082835;28;20251;-70
2022/09/09 01:25:18;;;;;;;5.82;1.65;;;;;;;;;;5082929;28;20220;-70
2022/09/09 01:27:47;;;;;;;2.05;1.10;;;;;;;;;;5052167;28;20196;-70
2022/09/09 01:30:14;;;;;;;3.80;1.35;;;;;;;;;;5083279;28;20391;-70
2022/09/09 01:32:42;;;;;;;3.63;1.50;;;;;;;;;;5082694;28;20270;-70
2022/09/09 01:35:11;;;;;;;3.88;1.42;;;;;;;;;;5082855;28;20193;-70
2022/09/09 01:37:38;;;;;;;4.82;1.70;;;;;;;;;;5082651;28;20226;-70
2022/09/09 01:40:04;;;;;;;3.65;1.67;;;;;;;;;;5082725;28;20196;-70
2022/09/09 01:42:31;;;;;;;1.98;1.42;;;;;;;;;;5082463;28;20286;-70
2022/09/09 01:44:58;;;;;;;2.13;1.30;;;;;;;;;;5082730;28;20392;-70
2022/09/09 01:47:25;;;;;;;3.67;1.08;;;;;;;;;;5082717;28;20408;-70
2022/09/09 01:52:56;;;;;;;4.60;1.50;;;;;;;;;;5081492;28;20206;-70
2022/09/09 01:55:28;;;;;;;7.25;1.42;;;;;;;;;;5082618;28;20512;-70
2022/09/09 01:58:00;;;;;;;2.15;1.45;;;;;;;;;;5082544;28;20203;-70
2022/09/09 02:00:29;;;;;;;3.95;1.35;;;;;;;;;;5082622;28;20500;-70
2022/09/09 02:03:01;;;;;;;2.45;1.20;;;;;;;;;;5082229;28;20455;-70
2022/09/09 02:05:31;;;;;;;1.35;1.08;;;;;;;;;;5081934;28;20220;-70
2022/09/09 02:08:00;;;;;;;3.33;0.90;;;;;;;;;;5082541;28;20496;-70
2022/09/09 02:10:29;;;;;;;1.27;1.05;;;;;;;;;;5082194;28;20211;-70
2022/09/09 02:12:59;;;;;;;3.00;1.10;;;;;;;;;;5082149;28;20291;-70
2022/09/09 02:15:33;;;;;;;1.83;1.23;;;;;;;;;;5082363;28;20233;-70
2022/09/09 02:18:01;;;;;;;5.78;1.40;;;;;;;;;;5082232;28;20203;-70
2022/09/09 02:20:33;;;;;;;2.75;1.42;;;;;;;;;;5082408;28;20302;-70
2022/09/09 02:22:59;;;;;;;4.20;1.33;;;;;;;;;;5082253;28;20496;-70
2022/09/09 02:25:29;;;;;;;2.65;1.45;;;;;;;;;;5082134;28;20548;-70
2022/09/09 02:27:58;;;;;;;2.53;1.33;;;;;;;;;;5082125;28;20203;-70
2022/09/09 02:30:24;;;;;;;2.60;1.65;;;;;;;;;;5082019;28;20196;-70
2022/09/09 02:32:56;;;;;;;6.78;1.55;;;;;;;;;;5082178;28;20203;-70
2022/09/09 02:35:26;;;;;;;5.20;1.70;;;;;;;;;;5082149;28;20223;-70
2022/09/09 02:37:53;;;;;;;4.75;1.50;;;;;;;;;;5082021;28;20426;-70
2022/09/09 02:40:20;;;;;;;2.70;1.63;;;;;;;;;;5082139;28;20396;-70
2022/09/09 02:42:48;;;;;;;7.07;1.85;;;;;;;;;;5081637;28;20197;-70
2022/09/09 02:45:16;;;;;;;5.28;1.60;;;;;;;;;;5082167;28;20272;-70
2022/09/09 02:47:46;;;;;;;5.30;1.80;;;;;;;;;;5081895;28;20196;-70
2022/09/09 02:50:16;;;;;;;6.38;1.83;;;;;;;;;;5082113;28;20416;-70
2022/09/09 02:52:53;;;;;;;4.95;1.77;;;;;;;;;;5081738;28;20203;-70
2022/09/09 02:55:24;;;;;;;6.03;2.05;;;;;;;;;;5081854;28;20200;-70
2022/09/09 02:57:51;;;;;;;5.13;2.00;;;;;;;;;;5081877;28;20197;-70
2022/09/09 03:00:24;;;;;;;4.18;2.10;;;;;;;;;;5081965;28;20197;-70
2022/09/09 03:02:51;;;;;;;4.20;2.17;;;;;;;;;;5081623;28;20196;-70
2022/09/09 03:05:18;;;;;;;5.30;1.92;;;;;;;;;;5085644;28;20262;-70
2022/09/09 03:07:45;;;;;;;6.15;2.47;;;;;;;;;;5085400;28;20208;-70
2022/09/09 03:10:11;;;;;;;7.80;3.13;;;;;;;;;;5085910;28;20204;-70
2022/09/09 03:12:38;;;;;;;4.82;2.70;;;;;;;;;;5085424;28;20219;-70
2022/09/09 03:15:05;;;;;;;6.30;3.20;;;;;;;;;;5085500;28;20203;-70
2022/09/09 03:17:31;;;;;;;6.75;2.70;;;;;;;;;;5085500;28;20199;-70
2022/09/09 03:19:58;;;;;;;3.22;2.35;;;;;;;;;;5085392;28;20204;-70
2022/09/09 03:22:26;;;;;;;3.70;2.22;;;;;;;;;;5085136;28;20203;-70
2022/09/09 03:24:52;;;;;;;2.95;2.10;;;;;;;;;;5085240;28;20268;-70
2022/09/09 03:27:19;;;;;;;8.98;2.08;;;;;;;;;;5085183;28;20560;-70
2022/09/09 03:29:45;;;;;;;2.65;1.90;;;;;;;;;;5085417;28;20197;-70
2022/09/09 03:32:12;;;;;;;9.02;2.35;;;;;;;;;;5084948;28;20286;-70
2022/09/09 03:34:40;;;;;;;3.67;1.90;;;;;;;;;;5085103;28;20231;-70
2022/09/09 03:37:06;;;;;;;5.85;2.85;;;;;;;;;;5084929;28;20200;-70
2022/09/09 03:39:33;;;;;;;5.28;1.90;;;;;;;;;;5084903;28;20197;-70
2022/09/09 03:42:03;;;;;;;3.35;1.70;;;;;;;;;;5084942;28;20533;-70
2022/09/09 03:44:30;;;;;;;7.22;1.85;;;;;;;;;;5084757;28;20197;-70
2022/09/09 03:46:56;;;;;;;2.25;1.48;;;;;;;;;;5085184;28;20220;-70
2022/09/09 03:49:23;;;;;;;2.33;1.55;;;;;;;;;;5084798;28;20197;-70
2022/09/09 03:51:50;;;;;;;2.15;1.17;;;;;;;;;;5084632;28;20229;-71
2022/09/09 03:54:16;;;;;;;3.88;1.55;;;;;;;;;;5084746;28;20385;-71
2022/09/09 03:56:44;;;;;;;2.97;1.40;;;;;;;;;;5084805;28;20192;-71
2022/09/09 03:59:10;;;;;;;4.05;2.03;;;;;;;;;;5084779;28;20196;-70
2022/09/09 04:01:36;;;;;;;3.00;1.83;;;;;;;;;;5084974;28;20197;-70
2022/09/09 04:04:03;;;;;;;5.63;2.40;;;;;;;;;;5084165;28;20234;-70
2022/09/09 04:06:29;;;;;;;7.13;2.53;;;;;;;;;;5084390;28;20225;-70
2022/09/09 04:08:56;;;;;;;3.63;1.73;;;;;;;;;;5084738;28;20200;-71
2022/09/09 04:11:22;;;;;;;5.47;2.10;;;;;;;;;;5084514;28;20205;-70
2022/09/09 04:13:50;;;;;;;6.60;1.80;;;;;;;;;;5084163;28;20249;-71
2022/09/09 04:16:16;;;;;;;4.55;1.40;;;;;;;;;;5084420;28;20192;-71
2022/09/09 04:18:43;;;;;;;2.92;1.58;;;;;;;;;;5084283;28;20270;-70
2022/09/09 04:21:09;;;;;;;3.28;1.52;;;;;;;;;;5084411;28;20373;-70
2022/09/09 04:23:36;;;;;;;2.70;1.50;;;;;;;;;;5084235;28;20204;-70
2022/09/09 04:26:03;;;;;;;2.35;1.58;;;;;;;;;;5084134;28;20235;-71
2022/09/09 04:28:30;;;;;;;3.33;1.13;;;;;;;;;;5084149;28;20200;-69
2022/09/09 04:31:04;;;;;;;2.45;1.58;;;;;;;;;;5084179;28;20504;-69
2022/09/09 04:33:31;;;;;;;3.38;1.33;;;;;;;;;;5083758;28;20196;-69
2022/09/09 04:35:58;;;;;;;1.73;1.15;;;;;;;;;;5084060;28;20192;-69
2022/09/09 04:38:25;;;;;;;2.85;1.60;;;;;;;;;;5083996;28;20196;-69
2022/09/09 04:40:52;;;;;;;2.85;1.85;;;;;;;;;;5083999;28;20204;-69
2022/09/09 04:43:19;;;;;;;3.67;1.50;;;;;;;;;;5083611;28;20568;-69
2022/09/09 04:45:48;;;;;;;3.35;1.25;;;;;;;;;;5083618;28;20197;-69
2022/09/09 04:48:15;;;;;;;1.40;1.30;;;;;;;;;;5084088;28;20258;-69
2022/09/09 04:50:42;;;;;;;2.08;1.35;;;;;;;;;;5083847;28;20200;-69
2022/09/09 04:53:08;;;;;;;4.00;1.08;;;;;;;;;;5083429;28;20200;-69
2022/09/09 04:55:35;;;;;;;2.97;1.27;;;;;;;;;;5083650;28;20200;-69
2022/09/09 04:58:03;;;;;;;3.50;2.05;;;;;;;;;;5083511;28;20193;-69
2022/09/09 05:00:29;;;;;;;4.10;1.30;;;;;;;;;;5083223;28;20196;-69
2022/09/09 05:02:56;;;;;;;3.67;1.42;;;;;;;;;;5083189;28;20199;-69
2022/09/09 05:05:25;;;;;;;3.33;1.40;;;;;;;;;;5083207;28;20219;-69
2022/09/09 05:07:51;;;;;;;2.90;1.83;;;;;;;;;;5082756;28;20220;-69
2022/09/09 05:10:17;;;;;;;4.18;1.83;;;;;;;;;;5083032;28;20200;-69
2022/09/09 05:12:44;;;;;;;3.28;1.73;;;;;;;;;;5082523;28;20438;-69
2022/09/09 05:15:11;;;;;;;7.93;1.80;;;;;;;;;;5061247;28;20418;-69
2022/09/09 05:17:37;;;;;;;6.53;2.22;;;;;;;;;;5071676;28;20431;-69
2022/09/09 05:20:04;;;;;;;4.00;1.60;;;;;;;;;;5076815;28;20527;-69
2022/09/09 05:22:32;;;;;;;4.45;2.20;;;;;;;;;;5076664;28;20270;-69
2022/09/09 05:24:58;;;;;;;3.00;1.83;;;;;;;;;;5075601;28;20212;-69
2022/09/09 05:27:24;;;;;;;7.15;2.13;;;;;;;;;;5072781;28;20491;-69
2022/09/09 05:29:50;;;;;;;3.60;1.73;;;;;;;;;;5075127;28;20216;-69
2022/09/09 05:32:17;;;;;;;3.00;1.55;;;;;;;;;;5072717;28;20217;-69
2022/09/09 05:34:43;;;;;;;3.42;1.55;;;;;;;;;;5074683;28;20220;-68
2022/09/09 05:37:10;;;;;;;2.15;1.83;;;;;;;;;;5075157;28;20200;-69
2022/09/09 05:39:38;;;;;;;3.65;1.95;;;;;;;;;;5075287;28;20230;-69
2022/09/09 05:42:04;;;;;;;8.63;1.42;;;;;;;;;;5074919;28;20511;-69
2022/09/09 05:44:31;;;;;;;1.92;1.42;;;;;;;;;;5074110;28;20212;-69
2022/09/09 05:46:57;;;;;;;2.83;1.90;;;;;;;;;;5074580;28;20563;-70
2022/09/09 05:49:24;;;;;;;6.57;1.85;;;;;;;;;;5074672;28;20246;-69
2022/09/09 05:54:54;;;;;;;8.05;2.17;;;;;;;;;;5063665;28;20225;-69
2022/09/09 05:57:21;;;;;;;3.45;2.10;;;;;;;;;;5069722;28;20447;-69
2022/09/09 05:59:47;;;;;;;3.83;2.20;;;;;;;;;;5074494;28;20220;-69
2022/09/09 06:02:14;;;;;;;9.80;2.35;;;;;;;;;;5074568;28;20213;-70
2022/09/09 06:04:40;;;;;;;7.47;2.03;;;;;;;;;;5075006;28;20244;-70
2022/09/09 06:07:06;;;;;;;2.97;1.67;;;;;;;;;;5072975;28;20286;-70
2022/09/09 06:09:33;;;;;;;5.07;2.03;;;;;;;;;;5075229;28;20451;-69
2022/09/09 06:12:00;;;;;;;7.30;2.30;;;;;;;;;;5075218;28;20212;-70
2022/09/09 06:14:27;;;;;;;8.02;2.45;;;;;;;;;;5074431;28;20212;-69
2022/09/09 06:16:53;;;;;;;5.88;2.25;;;;;;;;;;5074080;28;20212;-69
2022/09/09 06:19:20;;;;;;;8.18;2.30;;;;;;;;;;5074794;28;20204;-69
2022/09/09 06:21:47;;;;;;;4.28;2.15;;;;;;;;;;5074483;28;20452;-69
2022/09/09 06:24:17;;;;;;;5.85;2.22;;;;;;;;;;5073826;28;20212;-70
2022/09/09 06:26:43;;;;;;;6.95;2.53;;;;;;;;;;5074477;28;20559;-64
2022/09/09 06:29:12;;;;;;;5.55;1.70;;;;;;;;;;5074630;28;20212;-65
2022/09/09 06:31:38;;;;;;;5.35;1.73;;;;;;;;;;5074283;28;20212;-64
2022/09/09 06:34:05;;;;;;;8.55;2.30;;;;;;;;;;5073652;28;20461;-64
2022/09/09 06:36:33;;;;;;;6.95;2.30;;;;;;;;;;5074017;28;20407;-64
2022/09/09 06:38:59;;;;;;;9.63;5.32;;;;;;;;;;5076285;28;20212;-64
2022/09/09 06:41:28;;;;;;;6.03;1.60;;;;;;;;;;5078633;28;20212;-64
2022/09/09 06:43:55;;;;;;;1.88;1.77;;;;;;;;;;5078290;28;20212;-64
2022/09/09 06:46:27;;;;;;;6.38;2.33;;;;;;;;;;5077652;28;20441;-64
2022/09/09 06:48:55;;;;;;;7.00;1.88;;;;;;;;;;5078159;28;20224;-64
2022/09/09 06:51:22;;;;;;;3.00;1.90;;;;;;;;;;5078209;28;20250;-64
2022/09/09 06:53:50;;;;;;;6.75;2.10;;;;;;;;;;5078215;28;20216;-63
2022/09/09 06:56:20;;;;;;;2.60;1.80;;;;;;;;;;5077628;28;20208;-62
2022/09/09 06:58:48;;;;;;;4.53;2.20;;;;;;;;;;5078124;28;20208;-64
2022/09/09 07:01:15;;;;;;;6.07;2.10;;;;;;;;;;5077304;28;20216;-65
2022/09/09 07:03:43;;;;;;;3.75;1.88;;;;;;;;;;5077450;28;20438;-64
2022/09/09 07:06:14;;;;;;;4.38;1.50;;;;;;;;;;5074206;28;20236;-64
2022/09/09 07:08:41;;;;;;;3.75;1.65;;;;;;;;;;5077529;28;20296;-65
2022/09/09 07:11:08;;;;;;;5.00;1.63;;;;;;;;;;5075943;28;20211;-64
2022/09/09 07:13:35;;;;;;;3.38;1.70;;;;;;;;;;5076789;28;20211;-64
2022/09/09 07:16:04;;;;;;;2.17;1.90;;;;;;;;;;5075961;28;20219;-64
2022/09/09 07:18:31;;;;;;;9.93;3.30;;;;;;;;;;5076559;28;20212;-64
2022/09/09 07:20:58;;;;;;;6.10;1.98;;;;;;;;;;5077268;28;20228;-65
2022/09/09 07:23:25;;;;;;;4.00;1.58;;;;;;;;;;5076636;28;20257;-65
2022/09/09 07:25:52;;;;;;;2.78;1.70;;;;;;;;;;5076830;28;20220;-65
2022/09/09 07:28:19;;;;;;;6.68;1.88;;;;;;;;;;5076734;28;20239;-65
2022/09/09 07:30:53;;;;;;;3.13;1.80;;;;;;;;;;5074347;28;20212;-67
2022/09/09 07:33:20;;;;;;;6.22;2.10;;;;;;;;;;5067848;28;20461;-66
2022/09/09 07:35:46;;;;;;;5.03;1.65;;;;;;;;;;5064750;28;20196;-66
2022/09/09 07:38:15;;;;;;;2.90;1.45;;;;;;;;;;5076510;28;20250;-66
2022/09/09 07:40:41;;;;;;;3.38;1.30;;;;;;;;;;5073197;28;20205;-66
2022/09/09 07:43:07;;;;;;;6.43;1.38;;;;;;;;;;5075693;28;20452;-66
2022/09/09 07:45:34;;;;;;;5.18;1.88;;;;;;;;;;5070826;28;20434;-64
2022/09/09 07:48:00;;;;;;;6.13;2.00;;;;;;;;;;5076344;28;20224;-64
2022/09/09 07:50:27;;;;;;;4.20;1.60;;;;;;;;;;5075055;28;20562;-64
2022/09/09 07:52:53;;;;;;;3.72;1.73;;;;;;;;;;5076772;28;20204;-65
2022/09/09 07:55:25;;;;;;;4.40;0.90;;;;;;;;;;5076002;28;20543;-65
2022/09/09 07:57:51;;;;;;;4.93;1.15;;;;;;;;;;5075738;28;20204;-64
2022/09/09 08:00:18;;;;;;;2.25;1.33;;;;;;;;;;5076347;28;20216;-65
2022/09/09 08:02:46;;;;;;;5.97;1.08;;;;;;;;;;5075805;28;20238;-64
2022/09/09 08:05:12;;;;;;;7.50;1.27;;;;;;;;;;5076393;28;20581;-65
2022/09/09 08:07:39;;;;;;;6.20;1.50;;;;;;;;;;5075072;28;20239;-65
2022/09/09 08:10:06;;;;;;;4.88;1.67;;;;;;;;;;5075435;28;20201;-65
2022/09/09 08:12:33;;;;;;;5.40;1.50;;;;;;;;;;5076802;28;20216;-64
2022/09/09 08:15:00;;;;;;;3.70;1.63;;;;;;;;;;5075592;28;20220;-63
2022/09/09 08:17:26;;;;;;;3.22;1.40;;;;;;;;;;5075861;28;20406;-66
2022/09/09 08:19:53;;;;;;;6.13;1.30;;;;;;;;;;5075065;28;20219;-64
2022/09/09 08:22:20;;;;;;;3.75;1.30;;;;;;;;;;5075697;28;20540;-64
2022/09/09 08:24:47;;;;;;;3.08;1.88;;;;;;;;;;5075943;28;20222;-65
2022/09/09 08:27:13;;;;;;;6.00;1.30;;;;;;;;;;5075980;28;20232;-65
2022/09/09 08:29:40;;;;;;;3.58;1.40;;;;;;;;;;5071973;28;20573;-63
2022/09/09 08:32:07;;;;;;;4.10;1.55;;;;;;;;;;5075145;28;20212;-64
2022/09/09 08:34:33;;;;;;;3.38;1.20;;;;;;;;;;5075529;28;20329;-64
2022/09/09 08:37:00;;;;;;;2.28;0.98;;;;;;;;;;5074755;28;20469;-65
2022/09/09 08:39:26;;;;;;;1.33;0.82;;;;;;;;;;5075157;28;20415;-64
2022/09/09 08:42:07;;;;;;;1.38;0.80;;;;;;;;;;5076332;28;20480;-64
2022/09/09 08:44:40;;;;;;;3.05;0.60;;;;;;;;;;5074443;28;20212;-66
2022/09/09 08:47:12;;;;;;;2.20;0.80;;;;;;;;;;5074401;28;20208;-66
2022/09/09 08:49:49;;;;;;;3.58;0.80;;;;;;;;;;5076128;28;20219;-65
2022/09/09 08:52:18;;;;;;;2.42;0.98;;;;;;;;;;5071339;28;20218;-65
2022/09/09 08:54:45;;;;;;;6.10;0.95;;;;;;;;;;5074685;28;20240;-66
2022/09/09 08:57:15;;;;;;;3.15;0.57;;;;;;;;;;5075554;28;20212;-66
2022/09/09 08:59:42;;;;;;;2.50;1.15;;;;;;;;;;5075397;28;20417;-65
2022/09/09 09:02:15;;;;;;;1.73;0.63;;;;;;;;;;5069619;28;20216;-64
2022/09/09 09:04:52;;;;;;;1.45;1.00;;;;;;;;;;5071343;28;20407;-65
2022/09/09 09:07:24;;;;;;;1.25;0.70;;;;;;;;;;5074190;28;20286;-65
2022/09/09 09:09:53;;;;;;;2.25;0.90;;;;;;;;;;5074613;28;20208;-65
2022/09/09 09:12:21;;;;;;;8.52;1.00;;;;;;;;;;5074236;28;20219;-65
2022/09/09 09:14:48;;;;;;;4.25;0.80;;;;;;;;;;5075562;28;20211;-66
2022/09/09 09:17:17;;;;;;;5.57;1.92;;;;;;;;;;5074737;28;20215;-65
2022/09/09 09:19:46;;;;;;;3.80;0.93;;;;;;;;;;5071073;28;20610;-64
2022/09/09 09:22:16;;;;;;;3.03;1.00;;;;;;;;;;5074890;28;20240;-64
2022/09/09 09:24:46;;;;;;;4.03;1.05;;;;;;;;;;5071628;28;20219;-64
2022/09/09 09:27:13;;;;;;;2.05;0.80;;;;;;;;;;5074416;28;20228;-62
2022/09/09 09:29:40;;;;;;;4.22;1.05;;;;;;;;;;5075811;28;20219;-61
2022/09/09 09:32:12;;;;;;;3.58;0.93;;;;;;;;;;5073457;28;20219;-64
2022/09/09 09:34:40;;;;;;;3.72;0.85;;;;;;;;;;5074543;28;20279;-61
2022/09/09 09:37:13;;;;;;;3.92;0.70;;;;;;;;;;5074615;28;20637;-65
2022/09/09 09:39:39;;;;;;;2.45;0.70;;;;;;;;;;5075313;28;20255;-64
2022/09/09 09:42:10;;;;;;;3.72;0.68;;;;;;;;;;5075303;28;20221;-64
2022/09/09 09:44:37;;;;;;;4.95;0.90;;;;;;;;;;5074517;28;20216;-64
2022/09/09 09:47:07;;;;;;;9.40;0.70;;;;;;;;;;5074255;28;20591;-63
2022/09/09 09:49:33;;;;;;;3.17;0.70;;;;;;;;;;5074795;28;20239;-62
2022/09/09 09:52:02;;;;;;;3.38;0.50;;;;;;;;;;5073830;28;20234;-64
2022/09/09 09:54:30;;;;;;;1.63;0.30;;;;;;;;;;5073133;28;20218;-65
2022/09/09 09:56:57;;;;;;;3.35;0.20;;;;;;;;;;5074523;28;20201;-66
2022/09/09 09:59:24;;;;;;;1.38;0.40;;;;;;;;;;5073944;28;20253;-67
2022/09/09 10:01:51;;;;;;;1.08;0.40;;;;;;;;;;5073505;28;20405;-67
2022/09/09 10:04:20;;;;;;;0.52;0.47;;;;;;;;;;5073908;28;20212;-67
2022/09/09 10:06:47;;;;;;;1.23;0.40;;;;;;;;;;5073660;28;20288;-66
2022/09/09 10:09:23;;;;;;;0.38;0.38;;;;;;;;;;5073808;28;20227;-66
2022/09/09 10:11:55;;;;;;;1.80;0.45;;;;;;;;;;5071466;28;20212;-64
2022/09/09 10:14:22;;;;;;;0.82;0.70;;;;;;;;;;5072885;28;20216;-65
2022/09/09 10:16:55;;;;;;;2.75;0.50;;;;;;;;;;5072960;28;20257;-66
2022/09/09 10:19:23;;;;;;;2.15;0.60;;;;;;;;;;5074455;28;20384;-64
2022/09/09 10:22:06;;;;;;;0.40;0.32;;;;;;;;;;5073118;28;20212;-64
2022/09/09 10:24:50;;;;;;;0.93;0.57;;;;;;;;;;5073671;28;20466;-65
2022/09/09 10:27:20;;;;;;;1.90;0.50;;;;;;;;;;5070971;28;20242;-65
2022/09/09 10:30:10;;;;;;;0.75;0.40;;;;;;;;;;5074718;28;20307;-65
2022/09/09 10:32:38;;;;;;;0.80;0.52;;;;;;;;;;5057438;28;20216;-66
2022/09/09 10:35:09;;;;;;;1.15;0.60;;;;;;;;;;5072858;28;20293;-65
2022/09/09 10:37:43;;;;;;;3.20;0.70;;;;;;;;;;5073717;28;20212;-65
2022/09/09 10:40:19;;;;;;;1.20;0.80;;;;;;;;;;5073996;28;20672;-65
2022/09/09 10:42:46;;;;;;;0.90;0.63;;;;;;;;;;5070257;28;20212;-65
2022/09/09 10:45:17;;;;;;;1.95;0.60;;;;;;;;;;5073671;28;20336;-65
2022/09/09 10:47:51;;;;;;;1.85;0.75;;;;;;;;;;5070617;28;20253;-65
2022/09/09 10:50:29;;;;;;;2.45;0.68;;;;;;;;;;5070648;28;20212;-65
2022/09/09 10:52:59;;;;;;;1.95;0.80;;;;;;;;;;5072931;28;20219;-65
2022/09/09 10:55:28;;;;;;;2.88;0.63;;;;;;;;;;5073111;28;20211;-65
2022/09/09 10:57:57;;;;;;;1.15;0.50;;;;;;;;;;5072873;28;20208;-65
2022/09/09 11:00:24;;;;;;;1.70;0.85;;;;;;;;;;5073619;28;20400;-65
2022/09/09 11:02:52;;;;;;;2.83;0.70;;;;;;;;;;5073844;28;20223;-65
2022/09/09 11:05:20;;;;;;;3.20;0.70;;;;;;;;;;5072982;28;20228;-65
2022/09/09 11:07:50;;;;;;;1.80;0.70;;;;;;;;;;5072739;28;20437;-66
2022/09/09 11:10:20;;;;;;;2.42;0.60;;;;;;;;;;5073244;28;20315;-65
2022/09/09 11:12:50;;;;;;;0.77;0.75;;;;;;;;;;5069703;28;20561;-65
2022/09/09 11:15:18;;;;;;;3.10;0.90;;;;;;;;;;5073511;28;20207;-65
2022/09/09 11:17:49;;;;;;;5.20;1.15;;;;;;;;;;5074359;28;20212;-65
2022/09/09 11:20:15;;;;;;;2.53;0.70;;;;;;;;;;5073646;28;20212;-65
2022/09/09 11:22:45;;;;;;;1.52;0.65;;;;;;;;;;5072933;28;20230;-65
2022/09/09 11:25:15;;;;;;;0.85;0.75;;;;;;;;;;5075515;28;20212;-65
2022/09/09 11:27:44;;;;;;;0.60;0.60;;;;;;;;;;5072650;28;20212;-65
2022/09/09 11:30:20;;;;;;;2.85;0.85;;;;;;;;;;5078052;28;20299;-65
2022/09/09 11:33:03;;;;;;;5.50;0.77;;;;;;;;;;5077175;28;20538;-65
2022/09/09 11:35:38;;;;;;;5.38;0.60;;;;;;;;;;5076730;28;20253;-65
2022/09/09 11:38:15;;;;;;;3.40;0.90;;;;;;;;;;5076148;28;20219;-65
2022/09/09 11:40:41;;;;;;;2.30;0.50;;;;;;;;;;5073039;28;20281;-65
2022/09/09 11:43:12;;;;;;;5.07;0.90;;;;;;;;;;5076731;28;20223;-67
2022/09/09 11:45:40;;;;;;;3.10;0.98;;;;;;;;;;5076265;28;20242;-67
2022/09/09 11:48:24;;;;;;;3.45;1.08;;;;;;;;;;5079108;28;20211;-65
2022/09/09 11:50:58;;;;;;;1.80;0.60;;;;;;;;;;5077596;28;20212;-65
2022/09/09 11:53:25;;;;;;;3.63;0.70;;;;;;;;;;5076180;28;20247;-63
2022/09/09 11:56:13;;;;;;;1.38;0.70;;;;;;;;;;5075887;28;20212;-63
2022/09/09 11:58:41;;;;;;;1.58;0.85;;;;;;;;;;5070485;28;20208;-63
2022/09/09 12:01:16;;;;;;;3.75;0.90;;;;;;;;;;5078055;28;20550;-63
2022/09/09 12:03:44;;;;;;;7.93;0.90;;;;;;;;;;5076781;28;20208;-62
2022/09/09 12:06:13;;;;;;;2.17;0.70;;;;;;;;;;5076520;28;20251;-63
2022/09/09 12:08:42;;;;;;;2.58;0.55;;;;;;;;;;5076008;28;20231;-63
2022/09/09 12:11:08;;;;;;;0.50;0.50;;;;;;;;;;5076667;28;20258;-62
2022/09/09 12:13:34;;;;;;;3.50;0.50;;;;;;;;;;5076356;28;20412;-63
2022/09/09 12:16:02;;;;;;;2.90;0.40;;;;;;;;;;5076335;28;20384;-63
2022/09/09 12:18:34;;;;;;;0.55;0.50;;;;;;;;;;5076078;28;20235;-62
2022/09/09 12:21:04;;;;;;;0.47;0.30;;;;;;;;;;5076485;28;20212;-63
2022/09/09 12:23:33;;;;;;;1.27;0.35;;;;;;;;;;5076021;28;20216;-63
2022/09/09 12:26:02;;;;;;;1.40;0.17;;;;;;;;;;5075426;28;20234;-62
2022/09/09 12:28:40;;;;;;;0.40;0.40;;;;;;;;;;5074263;28;20235;-63
2022/09/09 12:31:08;;;;;;;0.45;0.28;;;;;;;;;;5075892;28;20523;-63
2022/09/09 12:33:37;;;;;;;0.75;0.20;;;;;;;;;;5075500;28;20215;-63
2022/09/09 12:36:04;;;;;;;0.85;0.20;;;;;;;;;;5075962;28;20275;-62
2022/09/09 12:38:33;;;;;;;0.38;0.30;;;;;;;;;;5076166;28;20215;-63
2022/09/09 12:41:00;;;;;;;0.30;0.20;;;;;;;;;;5076131;28;20520;-63
2022/09/09 12:43:27;;;;;;;1.13;0.20;;;;;;;;;;5075684;28;20218;-64
2022/09/09 12:45:57;;;;;;;0.20;0.20;;;;;;;;;;5074898;28;20216;-64
2022/09/09 12:48:26;;;;;;;1.10;0.20;;;;;;;;;;5075663;28;20224;-63
2022/09/09 12:50:54;;;;;;;1.63;0.40;;;;;;;;;;5076145;28;20420;-63
2022/09/09 12:53:23;;;;;;;1.65;0.40;;;;;;;;;;5074332;28;20219;-63
2022/09/09 12:55:51;;;;;;;1.08;0.40;;;;;;;;;;5074845;28;20532;-63
2022/09/09 12:58:19;;;;;;;0.30;0.20;;;;;;;;;;5074772;28;20410;-63
2022/09/09 13:00:51;;;;;;;0.70;0.40;;;;;;;;;;5075309;28;20417;-63
2022/09/09 13:03:19;;;;;;;1.00;0.30;;;;;;;;;;5071360;28;20212;-63
2022/09/09 13:05:47;;;;;;;2.42;0.60;;;;;;;;;;5074496;28;20762;-64
2022/09/09 13:08:17;;;;;;;1.90;0.35;;;;;;;;;;5075009;28;20461;-64
2022/09/09 13:10:45;;;;;;;3.08;0.50;;;;;;;;;;5071529;28;20280;-63
2022/09/09 13:13:14;;;;;;;1.70;0.52;;;;;;;;;;5071779;28;20208;-64
2022/09/09 13:15:48;;;;;;;0.90;0.47;;;;;;;;;;5079682;28;20243;-64
2022/09/09 13:18:14;;;;;;;2.60;0.57;;;;;;;;;;5067769;28;20426;-63
2022/09/09 13:20:46;;;;;;;1.23;0.50;;;;;;;;;;5073554;28;20204;-63
2022/09/09 13:23:12;;;;;;;0.85;0.50;;;;;;;;;;5066538;28;20208;-64
2022/09/09 13:25:41;;;;;;;1.73;0.50;;;;;;;;;;5069091;28;20220;-63
2022/09/09 13:28:21;;;;;;;2.05;0.35;;;;;;;;;;5069759;28;20204;-62
2022/09/09 13:30:58;;;;;;;0.77;0.40;;;;;;;;;;5072931;28;20358;-64
2022/09/09 13:33:29;;;;;;;5.43;0.50;;;;;;;;;;5069552;28;20265;-64
2022/09/09 13:35:58;;;;;;;1.23;0.50;;;;;;;;;;5077928;28;20278;-63
2022/09/09 13:38:25;;;;;;;0.50;0.43;;;;;;;;;;5078670;28;20231;-63
2022/09/09 13:40:57;;;;;;;3.45;0.73;;;;;;;;;;5077989;28;20306;-63
2022/09/09 13:43:24;;;;;;;4.47;0.60;;;;;;;;;;5077859;28;20215;-63
2022/09/09 13:45:59;;;;;;;0.70;0.40;;;;;;;;;;5078075;28;20234;-65
2022/09/09 13:48:26;;;;;;;3.28;0.50;;;;;;;;;;5074114;28;20578;-64
2022/09/09 13:50:56;;;;;;;0.47;0.40;;;;;;;;;;5078243;28;20231;-65
2022/09/09 13:53:22;;;;;;;0.40;0.40;;;;;;;;;;5077631;28;20207;-63
2022/09/09 13:55:49;;;;;;;1.13;0.40;;;;;;;;;;5077827;28;20504;-63
2022/09/09 13:58:18;;;;;;;1.48;0.60;;;;;;;;;;5078158;28;20231;-63
2022/09/09 14:00:44;;;;;;;3.38;0.45;;;;;;;;;;5077216;28;20538;-63
2022/09/09 14:03:11;;;;;;;1.08;0.43;;;;;;;;;;5077445;28;20325;-63
2022/09/09 14:05:37;;;;;;;3.38;0.65;;;;;;;;;;5077512;28;20228;-63
2022/09/09 14:08:04;;;;;;;0.68;0.40;;;;;;;;;;5077573;28;20214;-62
2022/09/09 14:10:31;;;;;;;1.85;0.60;;;;;;;;;;5076408;28;20235;-62
2022/09/09 14:12:57;;;;;;;3.10;0.40;;;;;;;;;;5073590;28;20228;-63
2022/09/09 14:15:24;;;;;;;4.75;0.43;;;;;;;;;;5076768;28;20392;-63
2022/09/09 14:17:52;;;;;;;0.65;0.47;;;;;;;;;;5077099;28;20214;-63
2022/09/09 14:20:19;;;;;;;0.60;0.55;;;;;;;;;;5077767;28;20230;-63
2022/09/09 14:22:45;;;;;;;1.10;0.60;;;;;;;;;;5077000;28;20495;-63
2022/09/09 14:25:13;;;;;;;2.78;0.70;;;;;;;;;;5077072;28;20231;-63
2022/09/09 14:27:40;;;;;;;1.35;0.45;;;;;;;;;;5077874;28;20211;-64
2022/09/09 14:30:07;;;;;;;3.85;0.30;;;;;;;;;;5076294;28;20234;-64
2022/09/09 14:32:34;;;;;;;1.65;0.30;;;;;;;;;;5077083;28;20405;-64
2022/09/09 14:35:01;;;;;;;1.00;0.30;;;;;;;;;;5077058;28;20210;-64
2022/09/09 14:37:27;;;;;;;0.85;0.20;;;;;;;;;;5077248;28;20216;-64
2022/09/09 14:39:54;;;;;;;1.65;0.40;;;;;;;;;;5077343;28;20223;-63
2022/09/09 14:42:21;;;;;;;2.17;0.45;;;;;;;;;;5077088;28;20235;-64
2022/09/09 14:44:48;;;;;;;3.92;0.50;;;;;;;;;;5076941;28;20523;-63
2022/09/09 14:47:14;;;;;;;0.77;0.30;;;;;;;;;;5077616;28;20204;-63
2022/09/09 14:49:42;;;;;;;1.52;0.50;;;;;;;;;;5076766;28;20227;-63
2022/09/09 14:52:09;;;;;;;2.40;0.40;;;;;;;;;;5076514;28;20207;-63
2022/09/09 14:54:35;;;;;;;3.47;0.43;;;;;;;;;;5077915;28;20538;-64
2022/09/09 14:57:02;;;;;;;4.30;0.30;;;;;;;;;;5076465;28;20279;-63
2022/09/09 14:59:28;;;;;;;0.73;0.30;;;;;;;;;;5078816;28;20200;-63